sensor_id;sensor_type;location;lat;lon;timestamp;P1;P2;P0
64570;PMS5003;61095;52.454;16.948;2023-06-22T06:04:27;8.00;7.67;4.33
64570;PMS5003;61095;52.454;16.948;2023-06-22T06:09:29;7.00;7.00;4.00
64570;PMS5003;61095;52.454;16.948;2023-06-22T06:14:29;6.00;6.00;3.00
64570;PMS5003;61095;52.454;16.948;2023-06-22T06:19:31;6.33;5.67;3.00
64570;PMS5003;61095;52.454;16.948;2023-06-22T06:24:31;6.00;6.00;3.00
64570;PMS5003;61095;52.454;16.948;2023-06-22T06:29:32;6.00;6.00;2.33
64570;PMS5003;61095;52.454;16.948;2023-06-22T06:34:34;5.00;5.00;2.00
64570;PMS5003;61095;52.454;16.948;2023-06-22T06:39:34;5.00;5.00;2.00
64570;PMS5003;61095;52.454;16.948;2023-06-22T06:44:34;7.00;7.00;4.00
64570;PMS5003;61095;52.454;16.948;2023-06-22T06:49:36;5.00;5.00;3.00
64570;PMS5003;61095;52.454;16.948;2023-06-22T06:54:36;5.67;5.67;3.67
64570;PMS5003;61095;52.454;16.948;2023-06-22T06:59:37;5.00;5.00;4.00
64570;PMS5003;61095;52.454;16.948;2023-06-22T07:04:38;3.00;3.00;3.00
64570;PMS5003;61095;52.454;16.948;2023-06-22T07:09:39;5.00;5.00;2.00
64570;PMS5003;61095;52.454;16.948;2023-06-22T07:14:39;4.00;4.00;1.00
64570;PMS5003;61095;52.454;16.948;2023-06-22T07:19:41;2.00;2.00;0.00
64570;PMS5003;61095;52.454;16.948;2023-06-22T07:24:41;3.00;3.00;0.00
64570;PMS5003;61095;52.454;16.948;2023-06-22T07:29:41;5.00;5.00;2.33
64570;PMS5003;61095;52.454;16.948;2023-06-22T07:34:43;5.00;5.00;2.00
64570;PMS5003;61095;52.454;16.948;2023-06-22T07:39:43;3.00;3.00;1.00
64570;PMS5003;61095;52.454;16.948;2023-06-22T07:44:44;4.00;4.00;1.00
64570;PMS5003;61095;52.454;16.948;2023-06-22T07:49:45;13.00;10.67;6.67
64570;PMS5003;61095;52.454;16.948;2023-06-22T07:54:46;9.67;8.33;4.00
64570;PMS5003;61095;52.454;16.948;2023-06-22T07:59:46;6.00;5.00;3.00
64570;PMS5003;61095;52.454;16.948;2023-06-22T08:04:48;4.00;4.00;2.33
64570;PMS5003;61095;52.454;16.948;2023-06-22T08:09:48;4.00;4.00;2.00
64570;PMS5003;61095;52.454;16.948;2023-06-22T08:14:49;4.00;4.00;1.00
64570;PMS5003;61095;52.454;16.948;2023-06-22T08:19:50;3.00;3.00;0.00
64570;PMS5003;61095;52.454;16.948;2023-06-22T08:24:51;3.00;3.00;0.00
64570;PMS5003;61095;52.454;16.948;2023-06-22T08:29:51;3.00;3.00;0.00
64570;PMS5003;61095;52.454;16.948;2023-06-22T08:34:53;2.67;2.67;0.00
64570;PMS5003;61095;52.454;16.948;2023-06-22T08:39:54;3.00;3.00;0.00
64570;PMS5003;61095;52.454;16.948;2023-06-22T08:44:55;2.00;2.00;0.00
64570;PMS5003;61095;52.454;16.948;2023-06-22T08:49:57;1.00;1.00;0.00
64570;PMS5003;61095;52.454;16.948;2023-06-22T08:54:57;3.00;3.00;0.00
64570;PMS5003;61095;52.454;16.948;2023-06-22T08:59:58;2.00;2.00;0.00
64570;PMS5003;61095;52.454;16.948;2023-06-22T09:05:03;2.33;2.00;0.00
64570;PMS5003;61095;52.454;16.948;2023-06-22T09:10:04;5.67;5.67;2.00
64570;PMS5003;61095;52.454;16.948;2023-06-22T09:15:05;2.67;2.67;0.00
64570;PMS5003;61095;52.454;16.948;2023-06-22T09:20:08;1.67;1.67;0.00
64570;PMS5003;61095;52.454;16.948;2023-06-22T09:25:09;3.00;3.00;0.00
64570;PMS5003;61095;52.454;16.948;2023-06-22T09:30:10;1.00;1.00;0.00
64570;PMS5003;61095;52.454;16.948;2023-06-22T09:35:12;1.00;1.00;0.00
64570;PMS5003;61095;52.454;16.948;2023-06-22T09:40:12;0.00;0.00;0.00
64570;PMS5003;61095;52.454;16.948;2023-06-22T09:45:12;0.00;0.00;0.00
64570;PMS5003;61095;52.454;16.948;2023-06-22T09:50:14;0.00;0.00;0.00
64570;PMS5003;61095;52.454;16.948;2023-06-22T09:55:15;0.00;0.00;0.00
64570;PMS5003;61095;52.454;16.948;2023-06-22T10:00:15;1.00;0.00;0.00
64570;PMS5003;61095;52.454;16.948;2023-06-22T10:05:18;0.00;0.00;0.00
64570;PMS5003;61095;52.454;16.948;2023-06-22T10:10:18;0.00;0.00;0.00
64570;PMS5003;61095;52.454;16.948;2023-06-22T10:15:18;2.00;2.00;0.00
64570;PMS5003;61095;52.454;16.948;2023-06-22T10:20:20;1.00;1.00;0.00
64570;PMS5003;61095;52.454;16.948;2023-06-22T10:25:21;2.00;2.00;0.00
64570;PMS5003;61095;52.454;16.948;2023-06-22T10:30:22;2.00;2.00;0.00
64570;PMS5003;61095;52.454;16.948;2023-06-22T10:35:23;2.00;2.00;0.00
64570;PMS5003;61095;52.454;16.948;2023-06-22T10:40:24;2.00;2.00;0.00
64570;PMS5003;61095;52.454;16.948;2023-06-22T10:45:24;2.00;2.00;0.00
64570;PMS5003;61095;52.454;16.948;2023-06-22T10:50:26;1.00;1.00;0.00
64570;PMS5003;61095;52.454;16.948;2023-06-22T10:55:27;1.00;1.00;0.00
64570;PMS5003;61095;52.454;16.948;2023-06-22T11:00:27;3.00;3.00;0.00
64570;PMS5003;61095;52.454;16.948;2023-06-22T11:05:29;2.67;2.67;0.00
64570;PMS5003;61095;52.454;16.948;2023-06-22T11:10:29;3.00;3.00;0.00
64570;PMS5003;61095;52.454;16.948;2023-06-22T11:15:29;3.00;3.00;0.00
64570;PMS5003;61095;52.454;16.948;2023-06-22T11:20:31;3.00;3.00;0.00
64570;PMS5003;61095;52.454;16.948;2023-06-22T11:25:31;2.67;2.67;1.00
64570;PMS5003;61095;52.454;16.948;2023-06-22T11:30:32;3.00;3.00;1.00
64570;PMS5003;61095;52.454;16.948;2023-06-22T11:35:34;4.00;3.00;1.00
64570;PMS5003;61095;52.454;16.948;2023-06-22T11:40:34;4.33;3.33;1.67
64570;PMS5003;61095;52.454;16.948;2023-06-22T11:45:34;4.00;3.00;1.00
64570;PMS5003;61095;52.454;16.948;2023-06-22T11:50:36;3.00;3.00;1.00
64570;PMS5003;61095;52.454;16.948;2023-06-22T11:55:36;4.00;4.00;2.00
64570;PMS5003;61095;52.454;16.948;2023-06-22T12:00:37;4.00;4.00;2.00
64570;PMS5003;61095;52.454;16.948;2023-06-22T12:05:39;4.00;4.00;1.00
64570;PMS5003;61095;52.454;16.948;2023-06-22T12:10:39;5.67;5.67;1.67
64570;PMS5003;61095;52.454;16.948;2023-06-22T12:15:40;6.00;6.00;2.00
64570;PMS5003;61095;52.454;16.948;2023-06-22T12:20:41;4.00;4.00;2.00
64570;PMS5003;61095;52.454;16.948;2023-06-22T12:25:42;5.00;5.00;2.00
64570;PMS5003;61095;52.454;16.948;2023-06-22T12:30:45;3.67;3.67;1.67
64570;PMS5003;61095;52.454;16.948;2023-06-22T12:35:46;4.00;4.00;1.00
64570;PMS5003;61095;52.454;16.948;2023-06-22T12:40:47;4.00;4.00;0.00
64570;PMS5003;61095;52.454;16.948;2023-06-22T12:45:47;4.00;4.00;0.00
64570;PMS5003;61095;52.454;16.948;2023-06-22T12:50:49;3.00;3.00;0.00
64570;PMS5003;61095;52.454;16.948;2023-06-22T12:55:49;3.33;3.33;0.00
64570;PMS5003;61095;52.454;16.948;2023-06-22T13:00:49;4.00;4.00;1.67
64570;PMS5003;61095;52.454;16.948;2023-06-22T13:05:52;5.00;5.00;3.67
64570;PMS5003;61095;52.454;16.948;2023-06-22T13:10:52;8.67;7.67;5.00
64570;PMS5003;61095;52.454;16.948;2023-06-22T13:15:52;9.67;8.00;4.00
64570;PMS5003;61095;52.454;16.948;2023-06-22T13:20:54;6.00;6.00;2.00
64570;PMS5003;61095;52.454;16.948;2023-06-22T13:25:55;5.00;5.00;3.00
64570;PMS5003;61095;52.454;16.948;2023-06-22T13:30:55;5.00;5.00;3.00
64570;PMS5003;61095;52.454;16.948;2023-06-22T13:35:57;6.00;6.00;3.00
64570;PMS5003;61095;52.454;16.948;2023-06-22T13:40:57;4.00;4.00;2.00
64570;PMS5003;61095;52.454;16.948;2023-06-22T13:45:58;4.00;4.00;1.33
64570;PMS5003;61095;52.454;16.948;2023-06-22T13:50:59;6.67;6.67;3.00
64570;PMS5003;61095;52.454;16.948;2023-06-22T13:56:00;13.67;13.67;6.00
64570;PMS5003;61095;52.454;16.948;2023-06-22T14:01:00;9.00;9.00;4.00
64570;PMS5003;61095;52.454;16.948;2023-06-22T14:06:02;5.00;5.00;2.00
64570;PMS5003;61095;52.454;16.948;2023-06-22T14:11:02;4.33;4.33;3.00
64570;PMS5003;61095;52.454;16.948;2023-06-22T14:16:03;6.00;6.00;3.00
64570;PMS5003;61095;52.454;16.948;2023-06-22T14:21:05;7.00;6.00;3.00
64570;PMS5003;61095;52.454;16.948;2023-06-22T14:26:05;6.67;6.00;3.33
64570;PMS5003;61095;52.454;16.948;2023-06-22T14:31:06;5.00;5.00;3.00
64570;PMS5003;61095;52.454;16.948;2023-06-22T14:36:07;6.33;6.33;3.33
64570;PMS5003;61095;52.454;16.948;2023-06-22T14:41:08;6.67;6.67;3.00
64570;PMS5003;61095;52.454;16.948;2023-06-22T14:46:09;6.00;6.00;3.00
64570;PMS5003;61095;52.454;16.948;2023-06-22T14:51:11;7.00;7.00;4.33
64570;PMS5003;61095;52.454;16.948;2023-06-22T14:56:12;6.67;6.67;4.00
64570;PMS5003;61095;52.454;16.948;2023-06-22T15:01:13;6.67;6.00;3.33
64570;PMS5003;61095;52.454;16.948;2023-06-22T15:06:14;6.00;5.33;2.00
64570;PMS5003;61095;52.454;16.948;2023-06-22T15:11:15;8.00;8.00;3.33
64570;PMS5003;61095;52.454;16.948;2023-06-22T15:16:15;6.00;6.00;3.00
64570;PMS5003;61095;52.454;16.948;2023-06-22T15:21:17;6.00;6.00;4.00
64570;PMS5003;61095;52.454;16.948;2023-06-22T15:26:17;6.00;6.00;3.00
64570;PMS5003;61095;52.454;16.948;2023-06-22T15:31:18;6.00;5.00;3.00
64570;PMS5003;61095;52.454;16.948;2023-06-22T15:36:19;5.00;5.00;4.00
64570;PMS5003;61095;52.454;16.948;2023-06-22T15:41:20;7.33;7.33;4.00
64570;PMS5003;61095;52.454;16.948;2023-06-22T15:46:20;7.33;7.33;4.00
64570;PMS5003;61095;52.454;16.948;2023-06-22T15:51:22;9.00;9.00;4.67
64570;PMS5003;61095;52.454;16.948;2023-06-22T15:56:22;7.00;7.00;4.00
64570;PMS5003;61095;52.454;16.948;2023-06-22T16:01:23;7.00;7.00;4.00
64570;PMS5003;61095;52.454;16.948;2023-06-22T16:06:25;6.00;6.00;2.67
64570;PMS5003;61095;52.454;16.948;2023-06-22T16:11:25;6.00;6.00;3.33
64570;PMS5003;61095;52.454;16.948;2023-06-22T16:16:26;7.00;7.00;4.33
64570;PMS5003;61095;52.454;16.948;2023-06-22T16:21:27;7.00;6.33;4.00
64570;PMS5003;61095;52.454;16.948;2023-06-22T16:26:29;5.00;5.00;4.00
64570;PMS5003;61095;52.454;16.948;2023-06-22T16:31:30;8.00;8.00;4.00
64570;PMS5003;61095;52.454;16.948;2023-06-22T16:36:32;6.00;6.00;4.00
64570;PMS5003;61095;52.454;16.948;2023-06-22T16:41:33;10.33;10.33;6.67
64570;PMS5003;61095;52.454;16.948;2023-06-22T16:46:33;9.00;9.00;5.67
64570;PMS5003;61095;52.454;16.948;2023-06-22T16:51:35;7.67;7.00;4.00
64570;PMS5003;61095;52.454;16.948;2023-06-22T16:56:36;8.00;8.00;5.33
64570;PMS5003;61095;52.454;16.948;2023-06-22T17:01:36;6.00;6.00;4.00
64570;PMS5003;61095;52.454;16.948;2023-06-22T17:06:53;7.00;7.00;3.00
64570;PMS5003;61095;52.454;16.948;2023-06-22T17:11:55;6.67;6.67;3.00
64570;PMS5003;61095;52.454;16.948;2023-06-22T17:16:59;8.67;8.67;4.00
64570;PMS5003;61095;52.454;16.948;2023-06-22T17:22:04;6.67;6.00;3.00
64570;PMS5003;61095;52.454;16.948;2023-06-22T17:27:04;8.67;7.67;3.00
64570;PMS5003;61095;52.454;16.948;2023-06-22T17:32:05;7.00;7.00;3.00
64570;PMS5003;61095;52.454;16.948;2023-06-22T17:37:07;7.00;7.00;3.00
64570;PMS5003;61095;52.454;16.948;2023-06-22T17:42:08;6.00;6.00;2.67
64570;PMS5003;61095;52.454;16.948;2023-06-22T17:47:08;4.33;4.33;1.33
64570;PMS5003;61095;52.454;16.948;2023-06-22T17:52:16;3.33;3.33;1.67
64570;PMS5003;61095;52.454;16.948;2023-06-22T17:57:17;6.33;6.33;3.00
64570;PMS5003;61095;52.454;16.948;2023-06-22T18:02:19;6.00;6.00;3.00
64570;PMS5003;61095;52.454;16.948;2023-06-22T18:07:23;6.00;6.00;3.00
64570;PMS5003;61095;52.454;16.948;2023-06-22T18:12:26;5.00;5.00;3.00
64570;PMS5003;61095;52.454;16.948;2023-06-22T18:17:27;5.00;5.00;2.33
64570;PMS5003;61095;52.454;16.948;2023-06-22T18:22:29;5.00;5.00;3.00
64570;PMS5003;61095;52.454;16.948;2023-06-22T18:27:31;5.00;5.00;2.00
64570;PMS5003;61095;52.454;16.948;2023-06-22T18:32:35;7.00;6.00;3.00
64570;PMS5003;61095;52.454;16.948;2023-06-22T18:37:38;7.33;7.00;4.00
64570;PMS5003;61095;52.454;16.948;2023-06-22T18:42:42;8.00;6.33;4.00
64570;PMS5003;61095;52.454;16.948;2023-06-22T18:47:44;6.00;6.00;4.00
64570;PMS5003;61095;52.454;16.948;2023-06-22T18:53:02;7.00;6.00;2.67
64570;PMS5003;61095;52.454;16.948;2023-06-22T18:58:13;7.00;7.00;4.00
64570;PMS5003;61095;52.454;16.948;2023-06-22T19:03:22;7.67;7.00;4.00
64570;PMS5003;61095;52.454;16.948;2023-06-22T19:08:34;8.00;8.00;5.00
64570;PMS5003;61095;52.454;16.948;2023-06-22T19:14:17;11.00;10.00;6.00
64570;PMS5003;61095;52.454;16.948;2023-06-22T19:19:18;10.00;10.00;5.00
64570;PMS5003;61095;52.454;16.948;2023-06-22T19:24:28;9.00;8.00;6.00
64570;PMS5003;61095;52.454;16.948;2023-06-22T19:29:29;10.67;9.67;6.33
64570;PMS5003;61095;52.454;16.948;2023-06-22T19:34:30;10.00;9.00;5.00
64570;PMS5003;61095;52.454;16.948;2023-06-22T19:39:36;11.67;11.67;6.00
64570;PMS5003;61095;52.454;16.948;2023-06-22T19:44:36;13.00;13.00;6.33
64570;PMS5003;61095;52.454;16.948;2023-06-22T19:49:37;13.00;13.00;7.00
64570;PMS5003;61095;52.454;16.948;2023-06-22T19:54:39;14.67;14.67;6.33
64570;PMS5003;61095;52.454;16.948;2023-06-22T19:59:39;15.67;15.67;8.00
64570;PMS5003;61095;52.454;16.948;2023-06-22T20:04:40;14.00;14.00;7.00
64570;PMS5003;61095;52.454;16.948;2023-06-22T20:09:41;12.00;12.00;5.00
64570;PMS5003;61095;52.454;16.948;2023-06-22T20:14:42;13.00;12.00;8.00
64570;PMS5003;61095;52.454;16.948;2023-06-22T20:19:42;13.00;11.00;7.00
64570;PMS5003;61095;52.454;16.948;2023-06-22T20:24:44;12.00;11.67;6.00
64570;PMS5003;61095;52.454;16.948;2023-06-22T20:29:45;9.00;9.00;6.00
64570;PMS5003;61095;52.454;16.948;2023-06-22T20:34:45;11.33;11.00;6.00
64570;PMS5003;61095;52.454;16.948;2023-06-22T20:39:47;12.00;11.33;6.67
64570;PMS5003;61095;52.454;16.948;2023-06-22T20:44:48;15.00;13.00;8.00
64570;PMS5003;61095;52.454;16.948;2023-06-22T20:49:48;13.00;12.00;6.00
64570;PMS5003;61095;52.454;16.948;2023-06-22T20:54:50;13.67;13.33;7.00
64570;PMS5003;61095;52.454;16.948;2023-06-22T20:59:51;15.00;15.00;9.00
64570;PMS5003;61095;52.454;16.948;2023-06-22T21:04:51;15.00;14.00;8.00
64570;PMS5003;61095;52.454;16.948;2023-06-22T21:09:53;14.00;13.00;7.00
64570;PMS5003;61095;52.454;16.948;2023-06-22T21:14:53;16.00;14.67;8.00
64570;PMS5003;61095;52.454;16.948;2023-06-22T21:19:53;16.00;14.00;7.67
64570;PMS5003;61095;52.454;16.948;2023-06-22T21:25:05;16.00;16.00;8.00
64570;PMS5003;61095;52.454;16.948;2023-06-22T21:30:07;17.33;16.00;8.00
64570;PMS5003;61095;52.454;16.948;2023-06-22T21:35:08;15.33;14.33;8.00
64570;PMS5003;61095;52.454;16.948;2023-06-22T21:40:11;13.00;12.00;8.00
64570;PMS5003;61095;52.454;16.948;2023-06-22T21:45:11;15.33;14.33;6.00
64570;PMS5003;61095;52.454;16.948;2023-06-22T21:50:12;14.00;14.00;7.00
64570;PMS5003;61095;52.454;16.948;2023-06-22T21:55:13;13.00;13.00;6.33
